Latest Weather Observations for Mount Gellibrand

IDV60801

Issued at 6:31 am EST Sunday 1 May 2016 (issued every 30 minutes, with the page automatically refreshed every 10 minutes)

About weather observations | Map of weather stations | Latest weather observations for VIC | Other Formats
Station Details ID: 090035 Name: MOUNT GELLIBRAND Lat: -38.23 Lon: 143.79 Height: 261.0 m
Data from the previous 72 hours. | See also: Recent months at Mount Gellibrand
Date/Time
EST
Temp
°C
App
Temp
°C
Dew
Point
Rel
Hum
%
Delta-T
°C
Wind Press
QNH
hPa
Press
MSL
hPa
Rain
since 9 am
mm
Dir
 
Spd
km/h
Gust
km/h
Spd
kts
Gust
kts
01/06:30am 11.5 0.7 7.8 78 1.8 NW 54 67 29 36 1001.9 1001.6 11.0
01/06:00am 11.4 1.4 7.9 79 1.7 NW 50 59 27 32 1001.6 1001.2 11.0
01/05:30am 12.2 2.0 8.5 78 1.9 NW 52 65 28 35 1001.1 1000.7 11.0
01/05:00am 12.7 2.0 9.7 82 1.6 NW 56 67 30 36 1000.7 1000.3 11.0
01/04:30am 13.3 4.0 10.5 83 1.5 NW 50 61 27 33 1000.5 1000.1 11.0
01/04:00am 13.4 7.2 12.6 95 0.4 NNW 37 46 20 25 1000.8 1000.4 11.0
01/03:30am 13.3 9.0 13.3 100 0.0 NNW 28 39 15 21 1001.4 1001.0 11.0
01/03:00am 13.2 6.8 13.2 100 0.0 NNW 39 46 21 25 1002.0 1001.7 11.0
01/02:30am 13.4 5.0 13.4 100 0.0 NNW 50 63 27 34 1002.8 1002.5 9.8
01/02:01am 13.7 6.1 13.5 99 0.1 NW 46 74 25 40 1003.0 1002.7 5.4
01/02:00am 13.8 6.2 13.6 99 0.1 NW 46 57 25 31 1003.1 1002.8 5.2
01/01:54am 13.7 5.2 13.2 97 0.3 N 50 65 27 35 1002.9 1002.6 4.0
01/01:30am 16.4 8.2 12.9 80 2.0 NNE 48 61 26 33 1001.8 1001.4 0.8
01/01:19am 16.3 7.0 13.0 81 1.9 N 54 69 29 37 1002.4 1002.1 0.8
01/01:00am 15.5 1.0 11.1 75 2.4 NNE 78 111 42 60 1000.4 1000.0 0.8
01/12:57am 13.7 -2.8 9.9 78 2.0 N 87 113 47 61 1001.1 1000.7 0.8
01/12:45am 15.8 2.5 13.6 87 1.3 N 76 117 41 63 1000.0 999.6 0.2
01/12:43am 16.6 4.3 14.2 86 1.4 N 72 100 39 54 1001.6 1001.2 0.2
01/12:30am 18.7 8.5 13.3 71 3.1 N 59 72 32 39 1002.0 1001.7 0.0
01/12:00am 18.6 11.1 12.8 69 3.3 N 44 56 24 30 1002.8 1002.5 0.0
 
Date/Time
EST
Temp
°C
App
Temp
°C
Dew
Point
Rel
Hum
%
Delta-T
°C
Wind Press
QNH
hPa
Press
MSL
hPa
Rain
since 9 am
mm
Dir
 
Spd
km/h
Gust
km/h
Spd
kts
Gust
kts
30/11:30pm 18.3 9.7 13.0 71 3.0 N 50 61 27 33 1003.4 1003.1 0.0
30/11:00pm 18.6 10.4 13.0 70 3.2 N 48 61 26 33 1004.6 1004.2 0.0
30/10:30pm 18.4 10.7 13.3 72 2.9 N 46 54 25 29 1005.5 1005.2 0.0
30/10:00pm 18.1 11.8 13.6 75 2.6 N 39 44 21 24 1006.6 1006.3 0.0
30/09:30pm 17.9 11.8 14.0 78 2.3 N 39 44 21 24 1007.3 1007.0 0.0
30/09:00pm 17.0 11.6 13.9 82 1.8 N 35 41 19 22 1007.7 1007.4 0.0
30/08:30pm 16.9 11.4 13.6 81 1.9 N 35 39 19 21 1008.1 1007.7 0.0
30/08:00pm 16.8 12.5 13.3 80 2.0 NNE 28 32 15 17 1008.4 1008.0 0.0
30/07:30pm 17.4 12.5 13.7 79 2.1 N 32 39 17 21 1008.6 1008.3 0.0
30/07:00pm 17.7 11.1 13.8 78 2.2 N 41 48 22 26 1008.5 1008.2 0.0
30/06:30pm 18.2 12.0 13.7 75 2.6 N 39 46 21 25 1008.5 1008.2 0.0
30/06:00pm 18.7 11.7 13.8 73 2.8 N 43 48 23 26 1008.3 1007.9 0.0
30/05:30pm 19.8 13.4 10.8 56 5.0 N 35 43 19 23 1008.7 1008.4 0.0
30/05:00pm 20.8 13.8 11.2 54 5.4 N 39 44 21 24 1008.8 1008.5 0.0
30/04:30pm 21.8 13.4 9.7 46 6.6 NNW 44 56 24 30 1008.7 1008.4 0.0
30/04:00pm 21.5 13.3 9.7 47 6.4 NNW 43 52 23 28 1008.9 1008.6 0.0
30/03:41pm 22.2 14.3 9.4 44 7.0 NNW 41 59 22 32 1008.8 1008.5 0.0
30/03:30pm 22.6 14.3 9.4 43 7.2 NNW 43 52 23 28 1008.9 1008.6 0.0
30/03:00pm 22.3 13.1 9.5 44 7.0 NW 48 57 26 31 1008.9 1008.6 0.0
30/02:30pm 21.8 11.7 9.0 44 6.9 NW 52 63 28 34 1009.2 1008.9 0.0
30/02:00pm 22.9 14.0 9.3 42 7.4 NW 46 65 25 35 1009.0 1008.7 0.0
30/01:59pm 23.3 14.5 9.7 42 7.5 NW 46 65 25 35 1009.1 1008.8 0.0
30/01:30pm 23.1 14.6 10.5 45 7.0 NNW 46 56 25 30 1009.7 1009.4 0.0
30/01:00pm 22.6 13.6 10.4 46 6.8 NNW 48 59 26 32 1010.2 1009.9 0.0
30/12:30pm 22.1 14.1 12.4 54 5.6 NNW 46 56 25 30 1010.8 1010.5 0.0
30/12:00pm 21.1 13.7 12.5 58 4.9 NNW 43 57 23 31 1011.4 1011.1 0.0
30/11:30am 21.2 13.5 13.4 61 4.5 NNW 46 56 25 30 1011.6 1011.3 0.0
30/11:00am 20.9 13.2 14.3 66 3.9 N 48 56 26 30 1012.0 1011.7 0.0
30/10:30am 19.6 11.9 14.4 72 3.1 NNW 48 61 26 33 1012.3 1012.0 0.0
30/10:00am 18.1 11.7 14.2 78 2.3 N 41 54 22 29 1012.6 1012.3 0.0
30/09:59am 18.2 12.2 14.3 78 2.3 N 39 54 21 29 1012.7 1012.4 0.0
30/09:30am 17.6 13.1 14.9 84 1.6 N 32 35 17 19 1013.3 1013.0 0.0
30/09:00am 15.6 11.9 14.0 90 0.9 NNW 26 28 14 15 1013.3 1013.0 1.0
30/08:30am 15.3 11.0 13.3 88 1.1 NNW 28 32 15 17 1013.3 1013.0 1.0
30/08:00am 14.2 9.5 13.1 93 0.6 N 30 33 16 18 1013.2 1012.9 1.0
30/07:30am 14.2 9.5 13.1 93 0.6 N 30 32 16 17 1012.8 1012.5 1.0
30/07:00am 14.0 9.2 12.9 93 0.6 N 30 33 16 18 1012.5 1012.2 1.0
30/06:30am 13.7 9.7 12.9 95 0.4 N 26 30 14 16 1012.4 1012.1 1.0
30/06:00am 13.7 8.5 12.9 95 0.4 N 32 33 17 18 1012.2 1011.9 1.0
30/05:30am 13.8 8.5 13.0 95 0.4 N 33 37 18 20 1012.2 1011.9 1.0
30/05:00am 13.9 9.1 13.0 94 0.5 N 30 33 16 18 1012.2 1011.9 0.8
30/04:30am 13.8 9.4 12.9 94 0.5 N 28 32 15 17 1012.1 1011.8 0.8
30/04:00am 13.7 9.3 12.8 94 0.5 N 28 30 15 16 1012.2 1011.9 0.8
30/03:30am 13.6 9.1 12.7 94 0.5 N 28 32 15 17 1012.3 1012.0 0.8
30/03:00am 14.0 10.4 12.9 93 0.6 N 24 28 13 15 1012.5 1012.2 0.8
30/02:30am 13.6 9.5 12.7 94 0.5 N 26 32 14 17 1012.7 1012.4 0.8
30/02:00am 13.6 9.1 12.7 94 0.5 N 28 33 15 18 1012.6 1012.3 0.8
30/01:30am 13.8 9.4 12.9 94 0.5 NNW 28 30 15 16 1012.9 1012.6 0.8
30/01:00am 13.8 8.9 12.7 93 0.6 NNW 30 33 16 18 1013.1 1012.8 0.8
30/12:30am 13.6 9.5 12.7 94 0.5 NNW 26 28 14 15 1013.2 1012.9 0.8
30/12:00am 13.5 9.8 12.7 95 0.4 NW 24 26 13 14 1013.3 1013.0 0.8
 
Date/Time
EST
Temp
°C
App
Temp
°C
Dew
Point
Rel
Hum
%
Delta-T
°C
Wind Press
QNH
hPa
Press
MSL
hPa
Rain
since 9 am
mm
Dir
 
Spd
km/h
Gust
km/h
Spd
kts
Gust
kts
29/11:30pm 13.9 10.8 13.4 97 0.3 NNW 22 24 12 13 1013.6 1013.3 0.8
29/11:00pm 14.2 10.8 13.6 96 0.3 NW 24 28 13 15 1013.9 1013.6 0.8
29/10:30pm 14.3 11.7 13.7 96 0.3 NW 20 24 11 13 1014.0 1013.7 0.8
29/10:00pm 14.5 11.9 13.7 95 0.5 WNW 20 24 11 13 1014.1 1013.8 0.8
29/09:30pm 14.3 11.9 13.7 96 0.3 W 19 20 10 11 1014.0 1013.7 0.8
29/09:00pm 14.9 12.4 13.4 91 0.8 WNW 19 20 10 11 1013.8 1013.5 0.8
29/08:30pm 14.9 12.1 13.3 90 0.9 NW 20 24 11 13 1013.5 1013.2 0.8
29/08:00pm 15.2 12.9 13.1 87 1.2 WNW 17 20 9 11 1013.5 1013.2 0.8
29/07:30pm 15.2 12.4 13.1 87 1.2 NNW 20 24 11 13 1013.0 1012.7 0.8
29/07:00pm 15.4 12.2 13.1 86 1.3 NNW 22 26 12 14 1013.0 1012.7 0.8
29/06:30pm 15.3 11.4 13.2 87 1.2 NNW 26 30 14 16 1012.8 1012.5 0.8
29/06:00pm 15.7 11.1 13.4 86 1.3 NNW 30 35 16 19 1012.3 1012.0 0.8
29/05:30pm 16.0 11.7 13.3 84 1.5 NNW 28 33 15 18 1012.2 1011.9 0.8
29/05:00pm 16.4 11.1 13.1 81 1.9 NNW 33 39 18 21 1011.7 1011.5 0.8
29/04:30pm 16.6 11.1 13.5 82 1.8 NNW 35 41 19 22 1011.9 1011.6 0.8
29/04:00pm 16.4 11.3 13.7 84 1.5 NNW 33 39 18 21 1011.9 1011.6 0.8
29/03:30pm 16.4 11.6 13.9 85 1.4 N 32 37 17 20 1011.9 1011.6 0.8
29/03:00pm 16.4 12.4 14.1 86 1.3 NNW 28 33 15 18 1012.1 1011.8 0.8
29/02:30pm 16.1 10.7 13.8 86 1.3 NNW 35 43 19 23 1011.6 1011.3 0.8
29/02:00pm 15.9 10.9 14.1 89 1.0 NNW 33 37 18 20 1012.0 1011.7 0.8
29/01:30pm 15.7 10.2 13.5 87 1.2 NNW 35 41 19 22 1011.9 1011.6 0.6
29/01:00pm 15.9 10.7 13.4 85 1.4 NNW 33 41 18 22 1012.1 1011.8 0.4
29/12:30pm 15.7 10.7 13.4 86 1.3 N 32 37 17 20 1012.3 1012.0 0.2
29/12:00pm 15.4 10.8 13.4 88 1.1 N 30 37 16 20 1012.9 1012.6 0.2
29/11:30am 15.6 10.7 12.7 83 1.6 N 30 39 16 21 1013.4 1013.1 0.0
29/11:00am 16.4 11.1 12.4 77 2.2 N 32 37 17 20 1013.6 1013.3 0.0
29/10:30am 16.6 12.5 12.6 77 2.2 N 26 30 14 16 1014.0 1013.7 0.0
29/10:00am 16.7 12.8 12.0 74 2.6 N 24 28 13 15 1014.2 1013.9 0.0
29/09:30am 16.8 12.7 11.5 71 2.9 NNW 24 28 13 15 1014.1 1013.8 0.0
29/09:00am 16.8 13.0 11.1 69 3.1 NNW 22 24 12 13 1014.1 1013.8 2.0
29/08:30am 16.3 12.8 11.0 71 2.9 N 20 22 11 12 1013.9 1013.6 -
29/08:00am 16.4 11.8 10.9 70 3.0 NNW 26 33 14 18 1014.0 1013.7 -
29/07:30am 16.1 9.1 11.1 72 2.7 NNW 39 54 21 29 1013.9 1013.6 -
29/07:00am 16.8 10.0 10.6 67 3.3 N 37 44 20 24 1013.0 1012.7 -
29/06:30am 15.4 9.6 11.4 77 2.2 NNE 33 44 18 24 1013.0 1012.7 -
29/06:22am 16.5 12.3 11.2 71 2.9 NNE 24 39 13 21 1013.6 1013.3 -
29/06:00am 18.0 16.3 9.9 59 4.3 N 9 13 5 7 1013.9 1013.6 -
29/05:30am 17.9 16.7 9.5 58 4.5 W 6 9 3 5 1014.3 1014.0 -
29/05:00am 18.1 15.7 10.0 59 4.4 W 13 15 7 8 1014.4 1014.1 -
29/04:30am 17.6 15.3 10.5 63 3.8 W 13 20 7 11 1014.2 1013.9 -
29/04:00am 18.5 15.6 9.6 56 4.8 WNW 15 19 8 10 1014.4 1014.1 -
29/03:30am 16.8 14.9 11.9 73 2.7 W 13 19 7 10 1014.4 1014.1 -
29/03:00am 16.0 14.1 11.8 76 2.3 WNW 13 19 7 10 1014.7 1014.4 0.0
29/02:30am 15.9 14.2 12.3 79 2.0 NNE 13 17 7 9 1014.6 1014.3 -
29/02:00am 15.9 14.2 12.3 79 2.0 NE 13 17 7 9 1014.9 1014.6 -
29/01:30am 15.7 13.2 12.3 80 1.9 ENE 17 20 9 11 1014.9 1014.6 -
29/01:00am 15.9 13.1 12.6 81 1.8 ENE 19 22 10 12 1015.0 1014.8 -
29/12:30am 15.6 12.7 12.9 84 1.5 ENE 20 28 11 15 1015.1 1014.9 -
29/12:00am 15.4 12.7 12.9 85 1.4 ENE 19 24 10 13 1015.5 1015.3 -
 
Date/Time
EST
Temp
°C
App
Temp
°C
Dew
Point
Rel
Hum
%
Delta-T
°C
Wind Press
QNH
hPa
Press
MSL
hPa
Rain
since 9 am
mm
Dir
 
Spd
km/h
Gust
km/h
Spd
kts
Gust
kts
28/11:30pm 15.4 13.6 13.2 87 1.2 ENE 15 20 8 11 1016.0 1015.7 -
28/11:00pm 15.5 13.6 13.0 85 1.4 NE 15 19 8 10 1016.4 1016.1 -
28/10:30pm 15.5 13.9 12.8 84 1.5 NE 13 19 7 10 1016.7 1016.4 -
28/10:00pm 16.2 14.9 12.4 78 2.1 NE 11 15 6 8 1017.0 1016.7 -
28/09:30pm 16.6 14.2 11.5 72 2.8 NNE 15 20 8 11 1017.2 1016.9 -
28/09:00pm 17.3 15.0 11.6 69 3.1 NNE 15 19 8 10 1017.0 1016.7 0.0
28/08:30pm 16.7 14.4 11.8 73 2.7 NNE 15 20 8 11 1017.1 1016.8 -
28/08:00pm 17.9 15.5 11.5 66 3.5 N 15 19 8 10 1017.2 1016.9 -
28/07:30pm 18.1 16.1 11.4 65 3.7 NNW 13 15 7 8 1017.2 1016.9 -
28/07:00pm 18.1 14.9 11.4 65 3.7 N 19 20 10 11 1017.1 1016.8 -
28/06:30pm 18.1 15.3 11.4 65 3.7 N 17 19 9 10 1016.6 1016.3 -
28/06:00pm 17.6 14.9 11.6 68 3.3 WNW 17 19 9 10 1016.7 1016.4 -
28/05:30pm 17.6 14.7 12.3 71 3.0 NW 19 20 10 11 1016.9 1016.6 -
28/05:00pm 18.1 14.9 11.9 67 3.4 NW 20 22 11 12 1017.1 1016.8 -
28/04:30pm 18.3 15.2 12.1 67 3.5 NNW 20 22 11 12 1017.1 1016.8 -
28/04:00pm 18.1 15.1 11.9 67 3.4 NNW 19 20 10 11 1017.1 1016.8 -
28/03:30pm 18.0 14.5 12.2 69 3.2 N 22 24 12 13 1017.1 1016.8 -
28/03:00pm 18.5 15.7 12.5 68 3.4 NNW 19 22 10 12 1016.9 1016.6 -
28/02:30pm 18.9 17.7 12.9 68 3.4 NNW 11 13 6 7 1016.7 1016.4 -
28/02:00pm 18.8 17.5 11.1 61 4.2 NNW 9 13 5 7 1016.7 1016.4 -
28/01:30pm 19.1 17.1 10.1 56 4.9 NW 11 15 6 8 1017.0 1016.7 -
28/01:00pm 20.0 16.0 8.4 47 6.1 NW 19 24 10 13 1017.5 1017.2 -
28/12:30pm 20.1 16.0 8.8 48 6.0 NW 20 24 11 13 1017.7 1017.4 -
28/10:00am 17.3 14.0 10.9 66 3.5 WNW 19 22 10 12 1017.8 1017.5 0.0
28/09:30am 16.7 13.9 9.9 64 3.6 NW 15 20 8 11 1017.7 1017.4 0.0
28/09:00am 16.3 13.7 7.8 57 4.3 WNW 11 13 6 7 1017.6 1017.3 0.0
28/08:30am 15.9 12.2 7.9 59 4.1 WNW 17 19 9 10 1017.6 1017.3 0.0
28/08:00am 16.1 11.0 7.6 57 4.3 W 24 28 13 15 1017.5 1017.2 0.0
28/07:30am 17.5 10.5 5.8 46 5.8 WNW 32 37 17 20 1016.9 1016.6 0.0
28/07:00am 18.1 10.5 5.7 44 6.1 WNW 35 43 19 23 1015.6 1015.4 0.0

Other Formats:

Comma delimited format used in spreadsheet applications
http://www.bom.gov.au/fwo/IDV60801/IDV60801.95845.axf

JavaScript Object Notation format (JSON) in row-major order
http://www.bom.gov.au/fwo/IDV60801/IDV60801.95845.json